Time,TemperatureF,DewpointF,PressureIn,WindDirection,WindDirectionDegrees,WindSpeedMPH,WindSpeedGustMPH,Humidity,HourlyPrecipIn,Conditions,Clouds,dailyrainin,SoftwareType,DateUTC
2013-04-02 00:02:00,39.0,16.0,-100.00,NNE,30,1.0,4.0,40,-99.99,,,0.00,,2013-04-02 06:02:00,
2013-04-02 00:12:00,38.0,17.0,-100.00,NNE,25,4.0,6.0,42,-99.99,,,0.00,,2013-04-02 06:12:00,
2013-04-02 00:22:00,38.0,17.0,-100.00,NNE,25,4.0,6.0,42,-99.99,,,0.00,,2013-04-02 06:22:00,
2013-04-02 00:32:00,38.0,17.0,-100.00,NNE,25,4.0,6.0,42,-99.99,,,0.00,,2013-04-02 06:32:00,
2013-04-02 00:42:00,38.0,17.0,-100.00,NNE,25,4.0,6.0,42,-99.99,,,0.00,,2013-04-02 06:42:00,
2013-04-02 00:52:00,39.0,18.0,-100.00,NE,40,6.0,8.0,43,-99.99,,,0.00,,2013-04-02 06:52:00,
2013-04-02 01:02:00,39.0,18.0,-100.00,NE,40,6.0,8.0,43,-99.99,,,0.00,,2013-04-02 07:02:00,
2013-04-02 01:12:00,39.0,19.0,-100.00,ENE,75,9.0,12.0,44,-99.99,,,0.00,,2013-04-02 07:12:00,
2013-04-02 01:22:00,39.0,19.0,-100.00,ENE,75,9.0,12.0,44,-99.99,,,0.00,,2013-04-02 07:22:00,
2013-04-02 01:32:00,39.0,19.0,-100.00,ENE,75,9.0,12.0,44,-99.99,,,0.00,,2013-04-02 07:32:00,
2013-04-02 01:42:00,39.0,19.0,-100.00,ENE,75,9.0,12.0,44,-99.99,,,0.00,,2013-04-02 07:42:00,
2013-04-02 01:52:00,37.0,18.0,-100.00,East,80,6.0,8.0,46,-99.99,,,0.00,,2013-04-02 07:52:00,
2013-04-02 02:02:00,37.0,18.0,-100.00,East,80,6.0,8.0,46,-99.99,,,0.00,,2013-04-02 08:02:00,
2013-04-02 02:12:00,35.0,18.0,-100.00,East,85,5.0,6.0,49,-99.99,,,0.00,,2013-04-02 08:12:00,
2013-04-02 02:22:00,35.0,18.0,-100.00,East,85,5.0,6.0,49,-99.99,,,0.00,,2013-04-02 08:22:00,
2013-04-02 02:32:00,35.0,18.0,-100.00,East,85,5.0,6.0,49,-99.99,,,0.00,,2013-04-02 08:32:00,
2013-04-02 02:42:00,35.0,18.0,-100.00,East,85,5.0,6.0,49,-99.99,,,0.00,,2013-04-02 08:42:00,
2013-04-02 02:52:00,35.0,18.0,-100.00,East,80,4.0,6.0,50,-99.99,,,0.00,,2013-04-02 08:52:00,
2013-04-02 03:02:00,35.0,18.0,-100.00,East,80,4.0,6.0,50,-99.99,,,0.00,,2013-04-02 09:02:00,
2013-04-02 03:12:00,34.0,18.0,-100.00,ESE,115,6.0,6.0,53,-99.99,,,0.00,,2013-04-02 09:12:00,
2013-04-02 03:22:00,34.0,18.0,-100.00,ESE,115,6.0,6.0,53,-99.99,,,0.00,,2013-04-02 09:22:00,
2013-04-02 03:32:00,34.0,18.0,-100.00,ESE,115,6.0,6.0,53,-99.99,,,0.00,,2013-04-02 09:32:00,
2013-04-02 03:42:00,34.0,18.0,-100.00,ESE,115,6.0,6.0,53,-99.99,,,0.00,,2013-04-02 09:42:00,
2013-04-02 03:52:00,29.0,16.0,-100.00,SE,125,2.0,4.0,57,-99.99,,,0.00,,2013-04-02 09:52:00,
2013-04-02 04:03:00,29.0,16.0,-100.00,SE,125,2.0,4.0,57,-99.99,,,0.00,,2013-04-02 10:03:00,
2013-04-02 04:13:00,29.0,17.0,-100.00,ESE,120,3.0,4.0,61,-99.99,,,0.00,,2013-04-02 10:13:00,
2013-04-02 04:23:00,29.0,17.0,-100.00,ESE,120,3.0,4.0,61,-99.99,,,0.00,,2013-04-02 10:23:00,
2013-04-02 04:33:00,29.0,17.0,-100.00,ESE,120,3.0,4.0,61,-99.99,,,0.00,,2013-04-02 10:33:00,
2013-04-02 04:42:00,29.0,17.0,-100.00,ESE,120,3.0,4.0,61,-99.99,,,0.00,,2013-04-02 10:42:00,
2013-04-02 04:52:00,28.0,17.0,-100.00,ENE,65,1.0,1.0,64,-99.99,,,0.00,,2013-04-02 10:52:00,
2013-04-02 05:02:00,28.0,17.0,-100.00,ENE,65,1.0,1.0,64,-99.99,,,0.00,,2013-04-02 11:02:00,
2013-04-02 05:12:00,27.0,18.0,-100.00,NW,305,3.0,4.0,68,-99.99,,,0.00,,2013-04-02 11:12:00,
2013-04-02 05:22:00,27.0,18.0,-100.00,NW,305,3.0,4.0,68,-99.99,,,0.00,,2013-04-02 11:22:00,
2013-04-02 05:32:00,27.0,18.0,-100.00,NW,305,3.0,4.0,68,-99.99,,,0.00,,2013-04-02 11:32:00,
2013-04-02 05:42:00,27.0,18.0,-100.00,NW,305,3.0,4.0,68,-99.99,,,0.00,,2013-04-02 11:42:00,
2013-04-02 05:52:00,29.0,20.0,-100.00,SW,220,4.0,6.0,70,-99.99,,,0.00,,2013-04-02 11:52:00,
2013-04-02 06:02:00,29.0,20.0,-100.00,SW,220,4.0,6.0,70,-99.99,,,0.00,,2013-04-02 12:02:00,
2013-04-02 06:11:00,31.0,21.0,-100.00,West,260,8.0,11.0,66,-99.99,,,0.00,,2013-04-02 12:11:00,
2013-04-02 06:22:00,31.0,21.0,-100.00,West,260,8.0,11.0,66,-99.99,,,0.00,,2013-04-02 12:22:00,
2013-04-02 06:32:00,31.0,21.0,-100.00,West,260,8.0,11.0,66,-99.99,,,0.00,,2013-04-02 12:32:00,
2013-04-02 06:42:00,31.0,21.0,-100.00,West,260,8.0,11.0,66,-99.99,,,0.00,,2013-04-02 12:42:00,
2013-04-02 06:52:00,31.0,21.0,-100.00,WSW,255,10.0,12.0,66,-99.99,,,0.00,,2013-04-02 12:52:00,
2013-04-02 07:01:00,31.0,21.0,-100.00,WSW,255,10.0,12.0,66,-99.99,,,0.00,,2013-04-02 13:01:00,
2013-04-02 07:12:00,30.0,20.0,-100.00,WSW,250,6.0,9.0,67,-99.99,,,0.00,,2013-04-02 13:12:00,
2013-04-02 07:22:00,30.0,20.0,-100.00,WSW,250,6.0,9.0,67,-99.99,,,0.00,,2013-04-02 13:22:00,
2013-04-02 07:32:00,30.0,20.0,-100.00,WSW,250,6.0,9.0,67,-99.99,,,0.00,,2013-04-02 13:32:00,
2013-04-02 07:42:00,30.0,20.0,-100.00,WSW,250,6.0,9.0,67,-99.99,,,0.00,,2013-04-02 13:42:00,
2013-04-02 07:52:00,31.0,21.0,-100.00,WSW,250,9.0,11.0,68,-99.99,,,0.00,,2013-04-02 13:52:00,
2013-04-02 08:02:00,31.0,21.0,-100.00,WSW,250,9.0,11.0,68,-99.99,,,0.00,,2013-04-02 14:02:00,
2013-04-02 08:12:00,32.0,21.0,-100.00,WSW,240,12.0,14.0,64,-99.99,,,0.00,,2013-04-02 14:12:00,
2013-04-02 08:22:00,32.0,21.0,-100.00,WSW,240,12.0,14.0,64,-99.99,,,0.00,,2013-04-02 14:22:00,
2013-04-02 08:32:00,32.0,21.0,-100.00,WSW,240,12.0,14.0,64,-99.99,,,0.00,,2013-04-02 14:32:00,
2013-04-02 08:42:00,32.0,21.0,-100.00,WSW,240,12.0,14.0,64,-99.99,,,0.00,,2013-04-02 14:42:00,
2013-04-02 08:52:00,32.0,21.0,-100.00,SW,235,11.0,14.0,62,-99.99,,,0.00,,2013-04-02 14:52:00,
2013-04-02 09:02:00,32.0,21.0,-100.00,SW,235,11.0,14.0,62,-99.99,,,0.00,,2013-04-02 15:02:00,
2013-04-02 09:11:00,34.0,21.0,-100.00,SW,235,9.0,12.0,59,-99.99,,,0.00,,2013-04-02 15:11:00,
2013-04-02 09:22:00,34.0,21.0,-100.00,SW,235,9.0,12.0,59,-99.99,,,0.00,,2013-04-02 15:22:00,
2013-04-02 09:33:00,34.0,21.0,-100.00,SW,235,9.0,12.0,59,-99.99,,,0.00,,2013-04-02 15:33:00,
2013-04-02 09:42:00,34.0,21.0,-100.00,SW,235,9.0,12.0,59,-99.99,,,0.00,,2013-04-02 15:42:00,
2013-04-02 09:54:00,38.0,22.0,-100.00,SW,235,7.0,9.0,52,-99.99,,,0.00,,2013-04-02 15:54:00,
2013-04-02 10:03:00,38.0,22.0,-100.00,SW,235,7.0,9.0,52,-99.99,,,0.00,,2013-04-02 16:03:00,
2013-04-02 10:13:00,41.0,22.0,-100.00,WSW,245,6.0,9.0,46,-99.99,,,0.00,,2013-04-02 16:13:00,
2013-04-02 10:24:00,41.0,22.0,-100.00,WSW,245,6.0,9.0,46,-99.99,,,0.00,,2013-04-02 16:24:00,
2013-04-02 10:34:00,41.0,22.0,-100.00,WSW,245,6.0,9.0,46,-99.99,,,0.00,,2013-04-02 16:34:00,
2013-04-02 10:43:00,41.0,22.0,-100.00,WSW,245,6.0,9.0,46,-99.99,,,0.00,,2013-04-02 16:43:00,
2013-04-02 10:52:00,44.0,22.0,-100.00,SW,225,7.0,11.0,42,-99.99,,,0.00,,2013-04-02 16:52:00,
2013-04-02 11:04:00,44.0,22.0,-100.00,SW,225,7.0,11.0,42,-99.99,,,0.00,,2013-04-02 17:04:00,
2013-04-02 11:13:00,48.0,23.0,-100.00,SSW,200,4.0,9.0,38,-99.99,,,0.00,,2013-04-02 17:13:00,
2013-04-02 11:24:00,48.0,23.0,-100.00,SSW,200,4.0,9.0,38,-99.99,,,0.00,,2013-04-02 17:24:00,
2013-04-02 11:34:00,48.0,23.0,-100.00,SSW,200,4.0,9.0,38,-99.99,,,0.00,,2013-04-02 17:34:00,
2013-04-02 11:42:00,48.0,23.0,-100.00,SSW,200,4.0,9.0,38,-99.99,,,0.00,,2013-04-02 17:42:00,
2013-04-02 11:53:00,53.0,24.0,-100.00,SW,235,5.0,8.0,32,-99.99,,,0.00,,2013-04-02 17:53:00,
2013-04-02 12:03:00,53.0,24.0,-100.00,SW,235,5.0,8.0,32,-99.99,,,0.00,,2013-04-02 18:03:00,
2013-04-02 12:12:00,55.0,24.0,-100.00,West,260,3.0,6.0,30,-99.99,,,0.00,,2013-04-02 18:12:00,
2013-04-02 12:23:00,55.0,24.0,-100.00,West,260,3.0,6.0,30,-99.99,,,0.00,,2013-04-02 18:23:00,
2013-04-02 12:33:00,55.0,24.0,-100.00,West,260,3.0,6.0,30,-99.99,,,0.00,,2013-04-02 18:33:00,
2013-04-02 12:42:00,55.0,24.0,-100.00,West,260,3.0,6.0,30,-99.99,,,0.00,,2013-04-02 18:42:00,
2013-04-02 12:53:00,58.0,25.0,-100.00,NNW,340,2.0,5.0,28,-99.99,,,0.00,,2013-04-02 18:53:00,
2013-04-02 13:03:00,58.0,25.0,-100.00,NNW,340,2.0,5.0,28,-99.99,,,0.00,,2013-04-02 19:03:00,
2013-04-02 13:12:00,60.0,25.0,-100.00,NNE,20,3.0,6.0,26,-99.99,,,0.00,,2013-04-02 19:12:00,
2013-04-02 13:22:00,60.0,25.0,-100.00,NNE,20,3.0,6.0,26,-99.99,,,0.00,,2013-04-02 19:22:00,
2013-04-02 13:33:00,60.0,25.0,-100.00,NNE,20,3.0,6.0,26,-99.99,,,0.00,,2013-04-02 19:33:00,
2013-04-02 13:43:00,60.0,25.0,-100.00,NNE,20,3.0,6.0,26,-99.99,,,0.00,,2013-04-02 19:43:00,
2013-04-02 13:53:00,65.0,27.0,-100.00,SW,235,4.0,9.0,24,-99.99,,,0.00,,2013-04-02 19:53:00,
2013-04-02 14:03:00,65.0,27.0,-100.00,SW,235,4.0,9.0,24,-99.99,,,0.00,,2013-04-02 20:03:00,
2013-04-02 14:12:00,65.0,25.0,-100.00,NW,305,6.0,9.0,22,-99.99,,,0.00,,2013-04-02 20:12:00,
2013-04-02 14:22:00,65.0,25.0,-100.00,NW,305,6.0,9.0,22,-99.99,,,0.00,,2013-04-02 20:22:00,
2013-04-02 14:33:00,65.0,25.0,-100.00,NW,305,6.0,9.0,22,-99.99,,,0.00,,2013-04-02 20:33:00,
2013-04-02 14:43:00,65.0,25.0,-100.00,NW,305,6.0,9.0,22,-99.99,,,0.00,,2013-04-02 20:43:00,
2013-04-02 14:53:00,70.0,27.0,-100.00,West,270,1.0,6.0,20,-99.99,,,0.00,,2013-04-02 20:53:00,
2013-04-02 15:03:00,70.0,27.0,-100.00,West,270,1.0,6.0,20,-99.99,,,0.00,,2013-04-02 21:03:00,
2013-04-02 15:12:00,69.0,25.0,-100.00,NW,315,4.0,12.0,19,-99.99,,,0.00,,2013-04-02 21:12:00,
2013-04-02 15:23:00,69.0,25.0,-100.00,NW,315,4.0,12.0,19,-99.99,,,0.00,,2013-04-02 21:23:00,
2013-04-02 15:33:00,69.0,25.0,-100.00,NW,315,4.0,12.0,19,-99.99,,,0.00,,2013-04-02 21:33:00,
2013-04-02 15:42:00,69.0,25.0,-100.00,NW,315,4.0,12.0,19,-99.99,,,0.00,,2013-04-02 21:42:00,
2013-04-02 15:54:00,70.0,24.0,-100.00,SSW,200,4.0,9.0,18,-99.99,,,0.00,,2013-04-02 21:54:00,
2013-04-02 16:03:00,70.0,24.0,-100.00,SSW,200,4.0,9.0,18,-99.99,,,0.00,,2013-04-02 22:03:00,
2013-04-02 16:13:00,71.0,25.0,-100.00,NW,315,4.0,7.0,18,-99.99,,,0.00,,2013-04-02 22:13:00,
2013-04-02 16:23:00,71.0,25.0,-100.00,NW,315,4.0,7.0,18,-99.99,,,0.00,,2013-04-02 22:23:00,
2013-04-02 16:33:00,71.0,25.0,-100.00,NW,315,4.0,7.0,18,-99.99,,,0.00,,2013-04-02 22:33:00,
2013-04-02 16:43:00,71.0,25.0,-100.00,NW,315,4.0,7.0,18,-99.99,,,0.00,,2013-04-02 22:43:00,
2013-04-02 16:53:00,69.0,24.0,-100.00,WNW,300,4.0,11.0,18,-99.99,,,0.00,,2013-04-02 22:53:00,
2013-04-02 17:02:00,69.0,24.0,-100.00,WNW,300,4.0,11.0,18,-99.99,,,0.00,,2013-04-02 23:02:00,
2013-04-02 17:12:00,70.0,24.0,-100.00,WSW,240,6.0,11.0,18,-99.99,,,0.00,,2013-04-02 23:12:00,
2013-04-02 17:23:00,70.0,24.0,-100.00,WSW,240,6.0,11.0,18,-99.99,,,0.00,,2013-04-02 23:23:00,
2013-04-02 17:33:00,70.0,24.0,-100.00,WSW,240,6.0,11.0,18,-99.99,,,0.00,,2013-04-02 23:33:00,
2013-04-02 17:42:00,70.0,24.0,-100.00,WSW,240,6.0,11.0,18,-99.99,,,0.00,,2013-04-02 23:42:00,
2013-04-02 17:52:00,70.0,23.0,-100.00,SW,235,6.0,12.0,17,-99.99,,,0.00,,2013-04-02 23:52:00,
2013-04-02 18:03:00,70.0,23.0,-100.00,SW,235,6.0,12.0,17,-99.99,,,0.00,,2013-04-03 00:03:00,
2013-04-02 18:12:00,70.0,22.0,-100.00,SSE,150,4.0,9.0,16,-99.99,,,0.00,,2013-04-03 00:12:00,
2013-04-02 18:23:00,70.0,22.0,-100.00,SSE,150,4.0,9.0,16,-99.99,,,0.00,,2013-04-03 00:23:00,
2013-04-02 18:32:00,70.0,22.0,-100.00,SSE,150,4.0,9.0,16,-99.99,,,0.00,,2013-04-03 00:32:00,
2013-04-02 18:44:00,70.0,22.0,-100.00,SSE,150,4.0,9.0,16,-99.99,,,0.00,,2013-04-03 00:44:00,
2013-04-02 18:53:00,70.0,22.0,-100.00,NNW,330,4.0,9.0,16,-99.99,,,0.00,,2013-04-03 00:53:00,
2013-04-02 19:03:00,70.0,22.0,-100.00,NNW,330,4.0,9.0,16,-99.99,,,0.00,,2013-04-03 01:03:00,
2013-04-02 19:12:00,69.0,21.0,-100.00,SSE,155,1.0,7.0,16,-99.99,,,0.00,,2013-04-03 01:12:00,
2013-04-02 19:22:00,69.0,21.0,-100.00,SSE,155,1.0,7.0,16,-99.99,,,0.00,,2013-04-03 01:22:00,
2013-04-02 19:33:00,69.0,21.0,-100.00,SSE,155,1.0,7.0,16,-99.99,,,0.00,,2013-04-03 01:33:00,
2013-04-02 19:42:00,69.0,21.0,-100.00,SSE,155,1.0,7.0,16,-99.99,,,0.00,,2013-04-03 01:42:00,
2013-04-02 19:52:00,66.0,20.0,-100.00,SSE,165,7.0,11.0,17,-99.99,,,0.00,,2013-04-03 01:52:00,
2013-04-02 20:03:00,66.0,20.0,-100.00,SSE,165,7.0,11.0,17,-99.99,,,0.00,,2013-04-03 02:03:00,
2013-04-02 20:12:00,60.0,19.0,-100.00,South,175,9.0,11.0,20,-99.99,,,0.00,,2013-04-03 02:12:00,
2013-04-02 20:23:00,60.0,19.0,-100.00,South,175,9.0,11.0,20,-99.99,,,0.00,,2013-04-03 02:23:00,
2013-04-02 20:33:00,60.0,19.0,-100.00,South,175,9.0,11.0,20,-99.99,,,0.00,,2013-04-03 02:33:00,
2013-04-02 20:42:00,60.0,19.0,-100.00,South,175,9.0,11.0,20,-99.99,,,0.00,,2013-04-03 02:42:00,
2013-04-02 20:52:00,61.0,21.0,-100.00,SSE,160,12.0,16.0,21,-99.99,,,0.00,,2013-04-03 02:52:00,
2013-04-02 21:04:00,61.0,21.0,-100.00,SSE,160,12.0,16.0,21,-99.99,,,0.00,,2013-04-03 03:04:00,
2013-04-02 21:13:00,59.0,20.0,-100.00,SSE,165,13.0,19.0,22,-99.99,,,0.00,,2013-04-03 03:13:00,
2013-04-02 21:22:00,59.0,20.0,-100.00,SSE,165,13.0,19.0,22,-99.99,,,0.00,,2013-04-03 03:22:00,
2013-04-02 21:35:00,59.0,20.0,-100.00,SSE,165,13.0,19.0,22,-99.99,,,0.00,,2013-04-03 03:35:00,
2013-04-02 21:43:00,59.0,20.0,-100.00,SSE,165,13.0,19.0,22,-99.99,,,0.00,,2013-04-03 03:43:00,
2013-04-02 21:53:00,58.0,19.0,-100.00,South,170,12.0,18.0,22,-99.99,,,0.00,,2013-04-03 03:53:00,
2013-04-02 22:03:00,58.0,19.0,-100.00,South,170,12.0,18.0,22,-99.99,,,0.00,,2013-04-03 04:03:00,
2013-04-02 22:12:00,56.0,19.0,-100.00,WSW,240,9.0,11.0,23,-99.99,,,0.00,,2013-04-03 04:12:00,
2013-04-02 22:23:00,56.0,19.0,-100.00,WSW,240,9.0,11.0,23,-99.99,,,0.00,,2013-04-03 04:23:00,
2013-04-02 22:32:00,56.0,19.0,-100.00,WSW,240,9.0,11.0,23,-99.99,,,0.00,,2013-04-03 04:32:00,
2013-04-02 22:42:00,56.0,19.0,-100.00,WSW,240,9.0,11.0,23,-99.99,,,0.00,,2013-04-03 04:42:00,
2013-04-02 22:53:00,55.0,20.0,-100.00,WSW,255,3.0,11.0,25,-99.99,,,0.00,,2013-04-03 04:53:00,
2013-04-02 23:02:00,55.0,20.0,-100.00,WSW,255,3.0,11.0,25,-99.99,,,0.00,,2013-04-03 05:02:00,
2013-04-02 23:12:00,49.0,16.0,-100.00,NE,55,0.0,1.0,27,-99.99,,,0.00,,2013-04-03 05:12:00,
2013-04-02 23:22:00,49.0,16.0,-100.00,NE,55,0.0,1.0,27,-99.99,,,0.00,,2013-04-03 05:22:00,
2013-04-02 23:32:00,49.0,16.0,-100.00,NE,55,0.0,1.0,27,-99.99,,,0.00,,2013-04-03 05:32:00,
2013-04-02 23:42:00,49.0,16.0,-100.00,NE,55,0.0,1.0,27,-99.99,,,0.00,,2013-04-03 05:42:00,